Flight Track Log - Related Links

Times and Time Zones

All times are in EDT time to prevent confusion due to time zone crossing. See the RPA3321 flight status page for this flight to view local times or setup timezone preferences in your user account.

Time Position Orientation Groundspeed Altitude Reporting Facility
EDT Latitude Longitude Course Direction KTS MPH feet Rate Location/Type
Fri 05:37:35 AM 42.7297 -73.8081 169° South 130 150 1,700  Level Boston Center
Fri 05:38:29 AM 42.7086 -73.8472 234° Southwest 214 246 3,400 2,174 Climbing Boston Center
Fri 05:38:44 AM 42.7167 -73.8672 299° West 240 276 4,200 3,680 Climbing Boston Center
Fri 05:39:00 AM 42.5153 -74.0095 171° South  Level Estimated
Fri 05:39:44 AM 42.7594 -73.9472 306° West 297 342 8,000  Level Boston Center
Fri 05:40:00 AM 42.4373 -74.0783 180° South  Level Estimated
Fri 05:40:44 AM 42.8039 -74.0389 303° West 297 342 10,500  Level Boston Center
Fri 05:41:00 AM 42.3593 -74.1470 170° South  Level Estimated
Fri 05:41:44 AM 42.8444 -74.1250 303° West 297 342 13,400  Level Boston Center
Fri 05:42:00 AM 42.2812 -74.2155 180° South  Level Estimated
Fri 05:42:44 AM 42.8592 -74.2528 279° West 311 358 16,700  Level Boston Center
Fri 05:43:00 AM 42.2031 -74.2838 169° South  Level Estimated
Fri 05:43:44 AM 42.7756 -74.2675 187° South 222 255 18,200  Level Boston Center
Fri 05:44:44 AM 42.6722 -74.2050 156° South 320 368 20,400 2,250 Climbing Boston Center
Fri 05:45:44 AM 42.5753 -74.1375 153° Southeast 344 396 22,700 1,955 Climbing Boston Center
Fri 05:46:56 AM 42.4719 -74.0697 154° Southeast 390 449 24,700 2,091 Climbing Boston Center
Fri 05:47:56 AM 42.3442 -73.9850 154° Southeast 417 480 27,300 1,650 Climbing Boston Center
Fri 05:48:56 AM 42.2386 -73.9122 153° Southeast 423 487 28,000 350 Climbing Boston Center
Fri 05:49:56 AM 42.1272 -73.8369 153° Southeast 433 498 28,000  Level Boston Center
Fri 05:50:56 AM 42.0086 -73.8203 174° South 427 491 28,000  Level Boston Center
Fri 05:51:56 AM 41.9183 -73.8658 201° Southwest 418 481 28,000  Level Boston Center
Fri 05:53:34 AM 41.7119 -73.9611 199° South 426 490 28,000  Level New York Center
Fri 05:54:33 AM 41.6003 -74.0139 199° South 426 490 28,000  Level New York Center
Fri 05:55:34 AM 41.5031 -74.0647 201° Southwest 426 490 28,000  Level New York Center
Fri 05:56:34 AM 41.3933 -74.1172 200° South 426 490 28,000  Level New York Center
Fri 05:57:33 AM 41.2856 -74.1672 199° South 426 490 28,000  Level New York Center
Fri 05:58:36 AM 41.1633 -74.2189 198° South 420 483 28,000  Level New York Center
Fri 05:59:34 AM 41.0556 -74.2739 201° Southwest 420 483 28,000  Level New York Center
Fri 06:00:35 AM 40.9478 -74.3261 200° South 415 478 28,000  Level New York Center
Fri 06:01:35 AM 40.8400 -74.3753 199° South 415 478 28,000 -610 Level New York Center
Fri 06:02:33 AM 40.7539 -74.4611 217° Southwest 393 452 26,800 -1,210 Descending New York Center
Fri 06:03:34 AM 40.6858 -74.5722 231° Southwest 393 452 25,600 -1,131 Descending New York Center
Fri 06:04:35 AM 40.6175 -74.6833 231° Southwest 387 445 24,500 -1,160 Descending New York Center
Fri 06:05:33 AM 40.5494 -74.7914 230° Southwest 393 452 23,300 -763 Descending New York Center
Fri 06:06:33 AM 40.4772 -74.8908 226° Southwest 393 452 23,000 -600 Descending New York Center
Fri 06:07:33 AM 40.4069 -74.9931 228° Southwest 393 452 22,100 -496 Descending New York Center
Fri 06:08:34 AM 40.3367 -75.0922 227° Southwest 387 445 22,000 -49 Descending New York Center
Fri 06:09:35 AM 40.2661 -75.1911 227° Southwest 382 440 22,000  Level New York Center
Fri 06:10:34 AM 40.1936 -75.2925 227° Southwest 382 440 22,000  Level New York Center
Fri 06:11:36 AM 40.1250 -75.3939 229° Southwest 382 440 22,000 -595 Level New York Center
Fri 06:12:35 AM 40.0544 -75.4894 226° Southwest 382 440 20,800 -1,026 Descending New York Center
Fri 06:13:33 AM 39.9797 -75.5903 226° Southwest 388 447 20,000 -403 Descending New York Center
Fri 06:14:34 AM 39.9131 -75.6883 228° Southwest 396 456 20,000  Level New York Center
Fri 06:15:35 AM 39.8439 -75.7972 230° Southwest 396 456 20,000 -591 Level New York Center
Fri 06:17:47 AM 39.6833 -76.0500 231° Southwest 387 445 18,100 -1,156 Descending Potomac TRACON
Fri 06:18:47 AM 39.6167 -76.1667 233° Southwest 383 441 16,300 -1,762 Descending Potomac TRACON
Fri 06:19:53 AM 39.5500 -76.2667 229° Southwest 360 414 14,400 -1,550 Descending Potomac TRACON
Fri 06:20:47 AM 39.5167 -76.3667 247° West 324 373 13,200 -1,263 Descending Potomac TRACON
Fri 06:21:47 AM 39.4833 -76.4667 247° West 315 362 12,000 -632 Descending Potomac TRACON
Fri 06:22:41 AM 39.4167 -76.5167 210° Southwest 298 343 12,000 -556 Level Potomac TRACON
Fri 06:23:35 AM 39.3500 -76.5500 201° Southwest 298 343 11,000 -1,053 Descending Potomac TRACON
Fri 06:24:35 AM 39.2833 -76.6000 210° Southwest 296 341 10,000 -496 Descending Potomac TRACON
Fri 06:25:36 AM 39.2000 -76.6500 205° Southwest 300 345 10,000  Level Potomac TRACON
Fri 06:26:30 AM 39.1333 -76.7000 210° Southwest 302 348 10,000  Level Potomac TRACON
Fri 06:27:30 AM 39.0833 -76.7667 226° Southwest 300 345 10,000 -756 Level Potomac TRACON
Fri 06:28:29 AM 39.0167 -76.8500 224° Southwest 289 333 8,500 -1,700 Descending Potomac TRACON
Fri 06:29:30 AM 38.9667 -76.9167 226° Southwest 285 328 6,600 -1,250 Descending Potomac TRACON
Fri 06:30:29 AM 38.9000 -76.9500 201° Southwest 252 290 6,000 -316 Descending Potomac TRACON
Fri 06:31:24 AM 38.8333 -76.9500 180° South 203 234 6,000 -574 Level Potomac TRACON
Fri 06:32:24 AM 38.7833 -76.9500 180° South 194 223 4,900 -1,000 Descending Potomac TRACON
Fri 06:33:24 AM 38.7333 -76.9333 165° South 189 217 4,000 -850 Descending Potomac TRACON
Fri 06:34:24 AM 38.7000 -76.9667 218° Southwest 215 247 3,200 -908 Descending Potomac TRACON
Fri 06:35:23 AM 38.7167 -77.0167 293° West 198 228 2,200 -756 Descending Potomac TRACON
Fri 06:36:23 AM 38.7667 -77.0333 345° North 167 192 1,700 -500 Descending Potomac TRACON

Login

Don't have an account? Register now (free) for customized features, flight alerts, and more!